createdAt,value
2023-05-22T00:03:09.687Z,101084.61
2023-05-22T00:08:10.644Z,101087.11
2023-05-22T00:13:09.190Z,101078.3
2023-05-22T00:18:08.679Z,101077.0
2023-05-22T00:23:09.460Z,101080.57
2023-05-22T00:28:08.944Z,101075.9
2023-05-22T00:33:08.642Z,101076.5
2023-05-22T00:38:08.823Z,101081.48999999999
2023-05-22T00:43:09.816Z,101080.5
2023-05-22T00:48:08.654Z,101079.1
2023-05-22T00:53:09.803Z,101077.31999999999
2023-05-22T00:58:11.153Z,101081.58
2023-05-22T01:03:09.409Z,101081.05
2023-05-22T01:05:11.984Z,101081.05
2023-05-22T01:08:09.071Z,101076.87
2023-05-22T01:13:17.357Z,101078.34
2023-05-22T01:18:18.571Z,101077.69
2023-05-22T01:19:33.875Z,101077.69
2023-05-22T01:23:26.835Z,101079.21
2023-05-22T01:28:24.317Z,101077.66
2023-05-22T01:33:10.643Z,101075.9
2023-05-22T01:38:10.146Z,101079.36
2023-05-22T01:43:09.049Z,101078.12
2023-05-22T01:48:08.634Z,101078.91
2023-05-22T01:53:14.875Z,101077.14
2023-05-22T01:58:15.676Z,101072.6
2023-05-22T02:03:18.388Z,101075.11
2023-05-22T02:08:10.417Z,101078.75
2023-05-22T02:13:09.130Z,101079.65000000001
2023-05-22T02:18:10.319Z,101086.01
2023-05-22T02:23:08.642Z,101086.03
2023-05-22T02:28:08.611Z,101082.87
2023-05-22T02:30:47.518Z,101082.87
2023-05-22T02:33:08.585Z,101084.38
2023-05-22T02:38:08.550Z,101078.54999999999
2023-05-22T02:43:08.595Z,101073.08
2023-05-22T02:48:08.493Z,101076.70000000001
2023-05-22T02:53:08.785Z,101070.08
2023-05-22T02:58:10.775Z,101061.58
2023-05-22T03:03:08.636Z,101061.89
2023-05-22T03:08:08.748Z,101056.09
2023-05-22T03:13:08.720Z,101060.75
2023-05-22T03:18:09.064Z,101059.12
2023-05-22T03:23:10.968Z,101063.81999999999
2023-05-22T03:28:09.035Z,101060.38
2023-05-22T03:33:08.851Z,101061.1
2023-05-22T03:38:08.857Z,101067.22
2023-05-22T03:43:09.353Z,101063.69
2023-05-22T03:48:09.582Z,101067.72
2023-05-22T03:53:08.438Z,101067.64
2023-05-22T03:58:09.002Z,101063.01999999999
2023-05-22T04:03:11.937Z,101067.28
2023-05-22T04:08:08.416Z,101065.99
2023-05-22T04:12:51.765Z,101064.22
2023-05-22T04:13:08.410Z,101064.22
2023-05-22T04:18:08.804Z,101063.75
2023-05-22T04:23:09.265Z,101059.53
2023-05-22T04:28:08.610Z,101052.59
2023-05-22T04:30:56.568Z,101052.59
2023-05-22T06:19:04.816Z,101027.26
2023-05-22T06:20:29.777Z,101025.61
2023-05-22T06:25:29.705Z,101012.45999999999
2023-05-22T06:30:39.668Z,101011.64
2023-05-22T06:35:30.364Z,101009.42
2023-05-22T06:40:29.649Z,101007.4
2023-05-22T06:45:30.472Z,101006.94
2023-05-22T06:50:30.141Z,101001.62
2023-05-22T06:55:29.919Z,100998.86
2023-05-22T07:00:30.743Z,100999.01999999999
2023-05-22T07:03:10.885Z,100999.01999999999
2023-05-22T07:05:29.778Z,100992.16
2023-05-22T07:10:29.690Z,100991.8
2023-05-22T07:15:30.347Z,100991.49
2023-05-22T07:20:29.819Z,100988.22
2023-05-22T07:25:29.842Z,100988.4
2023-05-22T07:30:30.384Z,100981.64
2023-05-22T07:35:30.026Z,100974.33
2023-05-22T07:40:29.630Z,100973.85
2023-05-22T07:45:29.983Z,100969.64
2023-05-22T07:50:32.189Z,100969.32
2023-05-22T07:55:29.698Z,100959.47
2023-05-22T08:00:31.273Z,100959.77
2023-05-22T08:05:29.834Z,100957.92
2023-05-22T08:10:37.188Z,100951.5
2023-05-22T08:15:29.987Z,100957.5
2023-05-22T08:20:29.759Z,100952.67
2023-05-22T08:25:29.669Z,100942.83
2023-05-22T08:30:30.896Z,100934.38
2023-05-22T08:35:29.606Z,100947.49
2023-05-22T08:40:35.609Z,100945.59000000001
2023-05-22T08:45:33.162Z,100945.78
2023-05-22T08:50:30.272Z,100945.94
2023-05-22T08:54:52.122Z,100941.83
2023-05-22T08:55:29.993Z,100941.83
2023-05-22T09:00:30.672Z,100941.52
2023-05-22T09:00:35.033Z,100941.52
2023-05-22T09:05:30.351Z,100939.06
2023-05-22T09:10:29.763Z,100938.76000000001
2023-05-22T09:15:30.944Z,100936.23999999999
2023-05-22T09:20:34.102Z,100929.92
2023-05-22T09:25:30.718Z,100923.79
2023-05-22T09:30:34.250Z,100930.05
2023-05-22T09:35:30.621Z,100915.19
2023-05-22T09:40:33.886Z,100912.17
2023-05-22T09:45:33.898Z,100911.37999999999
2023-05-22T09:50:29.661Z,100904.83
2023-05-22T09:55:31.194Z,100908.92
2023-05-22T10:00:33.511Z,100906.02
2023-05-22T10:05:31.050Z,100898.55
2023-05-22T10:10:29.841Z,100903.74
2023-05-22T10:15:31.187Z,100903.31
2023-05-22T10:20:29.809Z,100902.23
2023-05-22T10:25:29.620Z,100902.98
2023-05-22T10:30:35.524Z,100899.95
2023-05-22T10:35:40.006Z,100896.2
2023-05-22T10:40:34.452Z,100899.72
2023-05-22T10:45:30.837Z,100899.41
2023-05-22T10:50:29.835Z,100892.0
2023-05-22T10:55:29.649Z,100887.09
2023-05-22T11:00:30.645Z,100883.84
2023-05-22T11:05:33.518Z,100877.48
2023-05-22T11:10:50.836Z,100865.8
2023-05-22T11:15:30.322Z,100866.3
2023-05-22T11:20:36.526Z,100858.58
2023-05-22T11:25:32.817Z,100853.8
2023-05-22T11:30:29.722Z,100849.95
2023-05-22T11:35:30.399Z,100847.64
2023-05-22T11:40:30.203Z,100839.29000000001
2023-05-22T11:45:29.868Z,100841.54999999999
2023-05-22T11:50:41.750Z,100836.63
2023-05-22T11:55:32.463Z,100838.62000000001
2023-05-22T12:00:30.417Z,100826.70000000001
2023-05-22T12:05:30.796Z,100825.14
2023-05-22T12:10:30.498Z,100824.59
2023-05-22T12:15:29.891Z,100820.5
2023-05-22T12:20:29.875Z,100812.93
2023-05-22T12:25:35.062Z,100814.09
2023-05-22T12:30:39.196Z,100806.75
2023-05-22T12:35:29.572Z,100799.95
2023-05-22T12:40:30.250Z,100801.29
2023-05-22T12:45:30.086Z,100801.5
2023-05-22T12:50:30.620Z,100799.64
2023-05-22T12:55:30.305Z,100799.72
2023-05-22T13:00:29.792Z,100792.97
2023-05-22T13:05:30.020Z,100790.64
2023-05-22T13:10:30.222Z,100784.09
2023-05-22T13:15:31.652Z,100777.14
2023-05-22T13:20:29.550Z,100780.55
2023-05-22T13:25:30.382Z,100774.72
2023-05-22T13:30:29.489Z,100770.81
2023-05-22T13:35:29.889Z,100772.27
2023-05-22T13:40:30.237Z,100760.18000000001
2023-05-22T13:45:30.134Z,100761.15
2023-05-22T13:50:29.704Z,100754.64
2023-05-22T13:55:29.968Z,100744.72
2023-05-22T14:00:30.057Z,100743.02
2023-05-22T14:05:31.145Z,100740.52
2023-05-22T14:10:29.952Z,100744.81
2023-05-22T14:15:30.016Z,100738.07
2023-05-22T14:20:29.513Z,100739.4
2023-05-22T14:25:30.174Z,100739.03
2023-05-22T14:30:29.893Z,100743.01000000001
2023-05-22T14:35:30.093Z,100731.87000000001
2023-05-22T14:40:30.408Z,100732.68000000001
2023-05-22T14:45:29.746Z,100726.56
2023-05-22T14:50:29.605Z,100725.09
2023-05-22T14:55:30.920Z,100719.28
2023-05-22T15:00:30.072Z,100718.78
2023-05-22T15:05:29.571Z,100714.51
2023-05-22T15:10:29.651Z,100715.12
2023-05-22T15:15:30.087Z,100710.94
2023-05-22T15:20:29.838Z,100707.67
2023-05-22T15:25:33.832Z,100703.77
2023-05-22T15:30:34.319Z,100703.54999999999
2023-05-22T15:35:29.967Z,100695.0
2023-05-22T15:40:29.490Z,100692.03
2023-05-22T15:45:29.845Z,100688.23999999999
2023-05-22T15:50:29.799Z,100685.72
2023-05-22T15:55:29.437Z,100679.24
2023-05-22T16:00:30.305Z,100672.0
2023-05-22T16:05:33.876Z,100672.92
2023-05-22T16:10:29.445Z,100679.68
2023-05-22T16:14:59.959Z,100678.5
2023-05-22T16:15:29.693Z,100678.5
2023-05-22T16:20:29.720Z,100666.16
2023-05-22T16:21:50.032Z,100666.16
2023-05-22T16:25:29.834Z,100663.28
2023-05-22T16:30:29.532Z,100661.14
2023-05-22T16:35:29.629Z,100655.97
2023-05-22T16:40:30.645Z,100657.79
2023-05-22T16:45:31.151Z,100659.0
2023-05-22T16:50:23.769Z,100661.43
2023-05-22T16:50:29.470Z,100661.43
2023-05-22T16:55:30.346Z,100666.08
2023-05-22T17:00:29.570Z,100662.69
2023-05-22T17:05:29.698Z,100669.33
2023-05-22T17:10:29.976Z,100676.45
2023-05-22T17:15:29.494Z,100677.81
2023-05-22T17:16:09.048Z,100677.81
2023-05-22T17:20:31.777Z,100679.06
2023-05-22T17:25:30.244Z,100680.52
2023-05-22T17:30:30.500Z,100675.12000000001
2023-05-22T17:35:29.846Z,100680.8
2023-05-22T17:40:40.584Z,100680.0
2023-05-22T17:45:29.453Z,100675.98000000001
2023-05-22T17:50:29.789Z,100676.22
2023-05-22T17:55:29.827Z,100670.95000000001
2023-05-22T18:00:29.472Z,100669.23000000001
2023-05-22T18:05:29.441Z,100663.59
2023-05-22T18:10:30.163Z,100665.91
2023-05-22T18:15:30.488Z,100666.63
2023-05-22T18:20:30.533Z,100661.23999999999
2023-05-22T18:25:29.443Z,100665.51
2023-05-22T18:30:29.439Z,100663.75
2023-05-22T18:35:29.825Z,100667.35
2023-05-22T18:40:29.968Z,100669.28
2023-05-22T18:45:29.586Z,100675.81
2023-05-22T18:50:29.608Z,100676.73
2023-05-22T18:55:30.123Z,100680.95
2023-05-22T19:00:29.711Z,100684.81
2023-05-22T19:05:29.671Z,100687.15999999999
2023-05-22T19:10:30.037Z,100681.05
2023-05-22T19:15:29.582Z,100685.42
2023-05-22T19:20:29.630Z,100686.15999999999
2023-05-22T19:25:30.906Z,100680.70999999999
2023-05-22T19:30:29.588Z,100684.64
2023-05-22T19:35:29.517Z,100690.3
2023-05-22T19:40:29.382Z,100693.02
2023-05-22T19:45:29.502Z,100685.47
2023-05-22T19:50:29.829Z,100685.04000000001
2023-05-22T19:55:30.788Z,100680.53
2023-05-22T20:00:30.421Z,100688.23
2023-05-22T20:05:29.403Z,100691.88
2023-05-22T20:10:30.826Z,100687.66
2023-05-22T20:15:30.073Z,100685.61
2023-05-22T20:20:29.478Z,100684.17
2023-05-22T20:25:30.164Z,100679.78
2023-05-22T20:30:29.396Z,100680.55
2023-05-22T20:35:31.176Z,100683.03
2023-05-22T20:40:31.380Z,100674.72
2023-05-22T20:45:29.570Z,100678.17
2023-05-22T20:50:31.643Z,100676.79000000001
2023-05-22T20:55:29.834Z,100671.73
2023-05-22T21:00:29.316Z,100671.54000000001
2023-05-22T21:05:29.790Z,100671.7
2023-05-22T21:10:29.357Z,100674.45
2023-05-22T21:15:29.462Z,100681.24
2023-05-22T21:20:30.013Z,100672.63
2023-05-22T21:25:29.445Z,100668.98999999999
2023-05-22T21:30:30.538Z,100674.95
2023-05-22T21:35:29.631Z,100669.61
2023-05-22T21:40:29.420Z,100664.51
2023-05-22T21:45:30.150Z,100673.36
2023-05-22T21:50:29.931Z,100670.08
2023-05-22T21:55:29.369Z,100671.96
2023-05-22T22:00:29.213Z,100671.39
2023-05-22T22:05:30.158Z,100673.14
2023-05-22T22:10:29.389Z,100672.01
2023-05-22T22:15:12.215Z,100672.97
2023-05-22T22:15:30.567Z,100672.97
2023-05-22T22:20:43.697Z,100668.55
2023-05-22T22:25:29.247Z,100664.51
2023-05-22T22:30:29.362Z,100661.28
2023-05-22T22:31:59.647Z,100661.28
2023-05-22T22:32:18.452Z,100661.28
2023-05-22T22:35:29.683Z,100660.74
2023-05-22T22:40:29.553Z,100662.48000000001
2023-05-22T22:45:30.254Z,100661.69
2023-05-22T22:50:29.269Z,100662.34
2023-05-22T22:55:29.356Z,100662.0
2023-05-22T23:00:30.271Z,100657.06
2023-05-22T23:05:29.501Z,100652.8
2023-05-22T23:10:29.553Z,100642.76999999999
2023-05-22T23:15:29.775Z,100634.01
2023-05-22T23:20:29.936Z,100631.41
2023-05-22T23:25:29.266Z,100628.25
2023-05-22T23:30:30.075Z,100627.61
2023-05-22T23:35:20.600Z,100627.08
2023-05-22T23:35:29.891Z,100627.08
2023-05-22T23:40:29.259Z,100618.58
2023-05-22T23:45:29.965Z,100616.93000000001
2023-05-22T23:50:29.438Z,100609.34
2023-05-22T23:55:29.481Z,100610.92
